Time;durP1;ratioP1;P1;durP2;ratioP2;P2;SDS_P1;SDS_P2;PMS_P1;PMS_P2;Temp;Humidity;BMP_temperature;BMP_pressure;BME280_temperature;BME280_humidity;BME280_pressure;Samples;Min_cycle;Max_cycle;Signal;HPM_P1;HPM_P2
2021/01/30 00:00:21;;;;;;;;;;;;;;;;;;5013354;28;20050;-85
2021/01/30 00:02:48;;;;;;;;;;;;;;;;;;5000185;28;20503;-85
2021/01/30 00:05:14;;;;;;;;;;;;;;;;;;4999418;28;20001;-85
2021/01/30 00:07:40;;;;;;;;;;;;;;;;;;5000126;28;20006;-85
2021/01/30 00:10:07;;;;;;;;;;;;;;;;;;4998431;28;20468;-84
2021/01/30 00:12:33;;;;;;;;;;;;;;;;;;5000142;28;19982;-85
2021/01/30 00:15:00;;;;;;;;;;;;;;;;;;4999055;28;19976;-85
2021/01/30 00:17:26;;;;;;;;;;;;;;;;;;4998809;28;19993;-85
2021/01/30 00:19:52;;;;;;;;;;;;;;;;;;5003271;28;19978;-85
2021/01/30 00:22:19;;;;;;;;;;;;;;;;;;5004415;28;19969;-84
2021/01/30 00:24:46;;;;;;;;;;;;;;;;;;5003014;28;19984;-83
2021/01/30 00:27:12;;;;;;;;;;;;;;;;;;5004695;28;20014;-84
2021/01/30 00:29:38;;;;;;;;;;;;;;;;;;5005959;28;19970;-85
2021/01/30 00:32:05;;;;;;;;;;;;;;;;;;5005924;28;19973;-85
2021/01/30 00:34:31;;;;;;;;;;;;;;;;;;5002449;28;19976;-84
2021/01/30 00:36:58;;;;;;;;;;;;;;;;;;5002231;28;19996;-85
2021/01/30 00:39:24;;;;;;;;;;;;;;;;;;5002382;28;19980;-85
2021/01/30 00:41:50;;;;;;;;;;;;;;;;;;5000534;28;19973;-86
2021/01/30 00:44:17;;;;;;;;;;;;;;;;;;5000883;28;19973;-85
2021/01/30 00:46:43;;;;;;;;;;;;;;;;;;5000337;28;19993;-85
2021/01/30 00:49:09;;;;;;;;;;;;;;;;;;5001145;28;19987;-85
2021/01/30 00:51:36;;;;;;;;;;;;;;;;;;5001652;28;20385;-86
2021/01/30 00:54:02;;;;;;;;;;;;;;;;;;5001756;28;19973;-85
2021/01/30 00:56:29;;;;;;;;;;;;;;;;;;5002633;28;19997;-88
2021/01/30 00:58:55;;;;;;;;;;;;;;;;;;5002096;28;19995;-86
2021/01/30 01:01:21;;;;;;;;;;;;;;;;;;5003350;28;20001;-86
2021/01/30 01:03:48;;;;;;;;;;;;;;;;;;5010814;28;19985;-86
2021/01/30 01:06:14;;;;;;;;;;;;;;;;;;5019562;28;44976;-86
2021/01/30 01:11:25;;;;;;;;;;;;;;;;;;5001552;28;19992;-88
2021/01/30 01:13:51;;;;;;;;;;;;;;;;;;5009579;28;20168;-89
2021/01/30 01:16:18;;;;;;;;;;;;;;;;;;5001616;28;20245;-87
2021/01/30 01:18:44;;;;;;;;;;;;;;;;;;4999676;28;34901;-87
2021/01/30 01:21:11;;;;;;;;;;;;;;;;;;5000081;28;20171;-86
2021/01/30 01:23:37;;;;;;;;;;;;;;;;;;5000216;28;20036;-87
2021/01/30 01:26:03;;;;;;;;;;;;;;;;;;5001027;28;20477;-88
2021/01/30 01:28:30;;;;;;;;;;;;;;;;;;5000101;28;20047;-88
2021/01/30 01:30:57;;;;;;;;;;;;;;;;;;5000516;28;26100;-90
2021/01/30 01:33:23;;;;;;;;;;;;;;;;;;4998556;28;20868;-90
2021/01/30 01:35:50;;;;;;;;;;;;;;;;;;4999111;28;20117;-89
2021/01/30 01:38:16;;;;;;;;;;;;;;;;;;4998423;28;20915;-89
2021/01/30 01:40:43;;;;;;;;;;;;;;;;;;4998289;28;19984;-89
2021/01/30 01:43:09;;;;;;;;;;;;;;;;;;4998064;28;19980;-89
2021/01/30 01:45:36;;;;;;;;;;;;;;;;;;4997871;28;20444;-89
2021/01/30 01:48:02;;;;;;;;;;;;;;;;;;4999348;28;20543;-89
2021/01/30 01:50:29;;;;;;;;;;;;;;;;;;4906540;28;2696156;-89
2021/01/30 01:52:55;;;;;;;;;;;;;;;;;;5003866;28;20066;-88
2021/01/30 01:55:21;;;;;;;;;;;;;;;;;;4999910;28;22499;-89
2021/01/30 01:57:48;;;;;;;;;;;;;;;;;;5000903;28;20019;-89
2021/01/30 02:00:14;;;;;;;;;;;;;;;;;;5002454;28;20572;-89
2021/01/30 02:02:41;;;;;;;;;;;;;;;;;;5002977;28;20020;-89
2021/01/30 02:05:07;;;;;;;;;;;;;;;;;;5002816;28;19996;-89
2021/01/30 02:07:34;;;;;;;;;;;;;;;;;;5003255;28;20761;-88
2021/01/30 02:10:00;;;;;;;;;;;;;;;;;;5002590;28;20654;-87
2021/01/30 02:12:27;;;;;;;;;;;;;;;;;;5002247;28;20095;-88
2021/01/30 02:14:53;;;;;;;;;;;;;;;;;;5019034;28;20082;-88
2021/01/30 02:17:19;;;;;;;;;;;;;;;;;;5010755;28;22148;-87
2021/01/30 02:19:46;;;;;;;;;;;;;;;;;;4999982;28;20029;-87
2021/01/30 02:22:12;;;;;;;;;;;;;;;;;;5000025;28;20039;-87
2021/01/30 02:24:52;;;;;;;;;;;;;;;;;;4998835;28;20546;-87
2021/01/30 02:27:19;;;;;;;;;;;;;;;;;;4999260;28;20338;-87
2021/01/30 02:29:45;;;;;;;;;;;;;;;;;;4998692;28;20003;-87
2021/01/30 02:32:12;;;;;;;;;;;;;;;;;;4999121;28;20010;-87
2021/01/30 02:34:38;;;;;;;;;;;;;;;;;;4999317;28;20003;-87
2021/01/30 02:37:05;;;;;;;;;;;;;;;;;;4999234;28;20026;-87
2021/01/30 02:39:32;;;;;;;;;;;;;;;;;;5000314;28;20010;-88
2021/01/30 02:41:58;;;;;;;;;;;;;;;;;;5000563;28;20014;-87
2021/01/30 02:44:25;;;;;;;;;;;;;;;;;;5016095;28;19980;-87
2021/01/30 02:46:51;;;;;;;;;;;;;;;;;;5004349;28;19997;-86
2021/01/30 02:49:17;;;;;;;;;;;;;;;;;;5000190;28;20007;-86
2021/01/30 02:51:50;;;;;;;;;;;;;;;;;;5001261;28;19993;-93
2021/01/30 02:54:17;;;;;;;;;;;;;;;;;;5002081;28;20009;-88
2021/01/30 02:56:43;;;;;;;;;;;;;;;;;;5001097;28;20007;-88
2021/01/30 02:59:10;;;;;;;;;;;;;;;;;;4999270;28;20013;-88
2021/01/30 03:01:36;;;;;;;;;;;;;;;;;;4997167;28;19987;-89
2021/01/30 03:04:02;;;;;;;;;;;;;;;;;;4997452;28;19977;-90
2021/01/30 03:06:29;;;;;;;;;;;;;;;;;;4998757;28;19993;-92
2021/01/30 03:08:55;;;;;;;;;;;;;;;;;;4996999;28;19977;-91
2021/01/30 03:11:22;;;;;;;;;;;;;;;;;;4997166;28;19980;-90
2021/01/30 03:13:48;;;;;;;;;;;;;;;;;;4997134;28;20023;-90
2021/01/30 03:16:15;;;;;;;;;;;;;;;;;;4997916;28;20362;-91
2021/01/30 03:18:41;;;;;;;;;;;;;;;;;;4999269;28;20012;-90
2021/01/30 03:21:08;;;;;;;;;;;;;;;;;;4997993;28;19977;-90
2021/01/30 03:23:34;;;;;;;;;;;;;;;;;;4998133;28;19979;-90
2021/01/30 03:26:01;;;;;;;;;;;;;;;;;;4999041;28;19976;-91
2021/01/30 03:28:27;;;;;;;;;;;;;;;;;;4998640;28;19984;-91
2021/01/30 03:30:54;;;;;;;;;;;;;;;;;;4999693;28;20059;-90
2021/01/30 03:33:20;;;;;;;;;;;;;;;;;;4999100;28;19972;-91
2021/01/30 03:35:47;;;;;;;;;;;;;;;;;;4998055;28;20109;-90
2021/01/30 03:38:13;;;;;;;;;;;;;;;;;;4997681;28;20422;-90
2021/01/30 03:40:42;;;;;;;;;;;;;;;;;;4997464;28;19968;-90
2021/01/30 03:43:09;;;;;;;;;;;;;;;;;;5001684;28;20074;-90
2021/01/30 03:45:35;;;;;;;;;;;;;;;;;;5002546;28;19972;-90
2021/01/30 03:48:02;;;;;;;;;;;;;;;;;;5013726;28;19998;-90
2021/01/30 03:50:28;;;;;;;;;;;;;;;;;;5014227;28;19959;-90
2021/01/30 03:52:55;;;;;;;;;;;;;;;;;;5013383;28;19995;-89
2021/01/30 03:55:21;;;;;;;;;;;;;;;;;;5023256;28;19964;-89
2021/01/30 03:57:48;;;;;;;;;;;;;;;;;;5023115;28;19983;-87
2021/01/30 04:00:14;;;;;;;;;;;;;;;;;;5022307;28;19957;-88
2021/01/30 04:02:41;;;;;;;;;;;;;;;;;;5018418;28;20044;-88
2021/01/30 04:05:07;;;;;;;;;;;;;;;;;;5005226;28;19972;-90
2021/01/30 04:07:33;;;;;;;;;;;;;;;;;;5004046;28;20020;-89
2021/01/30 04:10:00;;;;;;;;;;;;;;;;;;5004237;28;19973;-89
2021/01/30 04:12:26;;;;;;;;;;;;;;;;;;5004352;28;19976;-90
2021/01/30 04:14:53;;;;;;;;;;;;;;;;;;5003549;28;20433;-91
2021/01/30 04:17:19;;;;;;;;;;;;;;;;;;5001974;28;20003;-90
2021/01/30 04:19:46;;;;;;;;;;;;;;;;;;5007666;28;19969;-89
2021/01/30 04:22:12;;;;;;;;;;;;;;;;;;5019513;28;20037;-88
2021/01/30 04:24:44;;;;;;;;;;;;;;;;;;5012041;28;19976;-90
2021/01/30 04:27:10;;;;;;;;;;;;;;;;;;5014421;28;19969;-87
2021/01/30 04:29:37;;;;;;;;;;;;;;;;;;5022471;28;19957;-86
2021/01/30 04:32:03;;;;;;;;;;;;;;;;;;5022759;28;20024;-88
2021/01/30 04:34:29;;;;;;;;;;;;;;;;;;5022663;28;19957;-87
2021/01/30 04:36:56;;;;;;;;;;;;;;;;;;5022399;28;20012;-86
2021/01/30 04:39:22;;;;;;;;;;;;;;;;;;5022812;28;19983;-87
2021/01/30 04:41:49;;;;;;;;;;;;;;;;;;5022743;28;20005;-87
2021/01/30 04:44:15;;;;;;;;;;;;;;;;;;5015982;28;20275;-91
2021/01/30 04:46:41;;;;;;;;;;;;;;;;;;5001397;28;20003;-90
2021/01/30 04:49:08;;;;;;;;;;;;;;;;;;4998801;28;20426;-90
2021/01/30 04:51:34;;;;;;;;;;;;;;;;;;4999244;28;19983;-90
2021/01/30 04:54:01;;;;;;;;;;;;;;;;;;4999897;28;19973;-90
2021/01/30 04:56:27;;;;;;;;;;;;;;;;;;5000431;28;20019;-91
2021/01/30 04:58:54;;;;;;;;;;;;;;;;;;5000791;28;19977;-91
2021/01/30 05:01:20;;;;;;;;;;;;;;;;;;5002604;28;20032;-91
2021/01/30 05:03:47;;;;;;;;;;;;;;;;;;5007077;28;20004;-90
2021/01/30 05:06:13;;;;;;;;;;;;;;;;;;5026617;28;19984;-89
2021/01/30 05:08:40;;;;;;;;;;;;;;;;;;5020316;28;19976;-91
2021/01/30 05:11:06;;;;;;;;;;;;;;;;;;5003698;28;19981;-91
2021/01/30 05:13:33;;;;;;;;;;;;;;;;;;5003693;28;19977;-91
2021/01/30 05:15:59;;;;;;;;;;;;;;;;;;5005652;28;20011;-91
2021/01/30 05:18:27;;;;;;;;;;;;;;;;;;5004736;28;19989;-92
2021/01/30 05:20:53;;;;;;;;;;;;;;;;;;5003708;28;19977;-92
2021/01/30 05:23:20;;;;;;;;;;;;;;;;;;5006661;28;20038;-91
2021/01/30 05:25:46;;;;;;;;;;;;;;;;;;5008149;28;19983;-91
2021/01/30 05:28:13;;;;;;;;;;;;;;;;;;5002204;28;19985;-91
2021/01/30 05:30:39;;;;;;;;;;;;;;;;;;5002055;28;19986;-91
2021/01/30 05:33:06;;;;;;;;;;;;;;;;;;5004159;28;19969;-90
2021/01/30 05:35:32;;;;;;;;;;;;;;;;;;4998077;28;19980;-91
2021/01/30 05:37:58;;;;;;;;;;;;;;;;;;4998959;28;20361;-90
2021/01/30 05:40:25;;;;;;;;;;;;;;;;;;4999734;28;19977;-90
2021/01/30 05:42:52;;;;;;;;;;;;;;;;;;4999499;28;20337;-90
2021/01/30 05:45:18;;;;;;;;;;;;;;;;;;5000660;28;19969;-90
2021/01/30 05:47:44;;;;;;;;;;;;;;;;;;5003543;28;20000;-90
2021/01/30 05:50:11;;;;;;;;;;;;;;;;;;5000683;28;19980;-89
2021/01/30 05:52:37;;;;;;;;;;;;;;;;;;4999615;28;20027;-90
2021/01/30 05:55:04;;;;;;;;;;;;;;;;;;4998684;28;19973;-90
2021/01/30 05:57:30;;;;;;;;;;;;;;;;;;5001407;28;19999;-89
2021/01/30 05:59:57;;;;;;;;;;;;;;;;;;5018048;28;19972;-89
2021/01/30 06:02:23;;;;;;;;;;;;;;;;;;5010399;28;19973;-89
2021/01/30 06:04:49;;;;;;;;;;;;;;;;;;5001710;28;20430;-89
2021/01/30 06:07:16;;;;;;;;;;;;;;;;;;5000671;28;19995;-91
2021/01/30 06:09:42;;;;;;;;;;;;;;;;;;5001046;28;19984;-91
2021/01/30 06:12:09;;;;;;;;;;;;;;;;;;4998119;28;19973;-89
2021/01/30 06:14:35;;;;;;;;;;;;;;;;;;4988173;28;19973;-90
2021/01/30 06:17:02;;;;;;;;;;;;;;;;;;5001042;28;20000;-91
2021/01/30 06:19:28;;;;;;;;;;;;;;;;;;5000398;28;19969;-91
2021/01/30 06:21:54;;;;;;;;;;;;;;;;;;5001447;28;19972;-91
2021/01/30 06:24:21;;;;;;;;;;;;;;;;;;5001489;28;19992;-90
2021/01/30 06:26:47;;;;;;;;;;;;;;;;;;5000550;28;19984;-90
2021/01/30 06:29:14;;;;;;;;;;;;;;;;;;4999601;28;20337;-90
2021/01/30 06:31:40;;;;;;;;;;;;;;;;;;5000675;28;19973;-90
2021/01/30 06:34:06;;;;;;;;;;;;;;;;;;5002814;28;19972;-90
2021/01/30 06:36:33;;;;;;;;;;;;;;;;;;5001090;28;19995;-91
2021/01/30 06:38:59;;;;;;;;;;;;;;;;;;4982020;28;19975;-89
2021/01/30 06:41:26;;;;;;;;;;;;;;;;;;4981815;28;19973;-90
2021/01/30 06:43:52;;;;;;;;;;;;;;;;;;4982600;28;19980;-90
2021/01/30 06:46:19;;;;;;;;;;;;;;;;;;4982533;28;19984;-90
2021/01/30 06:48:45;;;;;;;;;;;;;;;;;;4987041;28;19972;-90
2021/01/30 06:51:11;;;;;;;;;;;;;;;;;;5001401;28;19984;-90
2021/01/30 06:53:38;;;;;;;;;;;;;;;;;;5000448;28;19976;-90
2021/01/30 06:56:04;;;;;;;;;;;;;;;;;;5001058;28;19985;-89
2021/01/30 06:58:31;;;;;;;;;;;;;;;;;;5000982;28;19984;-91
2021/01/30 07:00:57;;;;;;;;;;;;;;;;;;4999844;28;19972;-90
2021/01/30 07:03:23;;;;;;;;;;;;;;;;;;5011880;28;20448;-90
2021/01/30 07:05:50;;;;;;;;;;;;;;;;;;5019198;28;19976;-90
2021/01/30 07:08:16;;;;;;;;;;;;;;;;;;5000832;28;19996;-89
2021/01/30 07:10:46;;;;;;;;;;;;;;;;;;5000254;28;20000;-89
2021/01/30 07:13:12;;;;;;;;;;;;;;;;;;4998186;28;19975;-88
2021/01/30 07:15:39;;;;;;;;;;;;;;;;;;4997350;28;20071;-88
2021/01/30 07:18:05;;;;;;;;;;;;;;;;;;4998614;28;19988;-88
2021/01/30 07:20:31;;;;;;;;;;;;;;;;;;4998708;28;20437;-89
2021/01/30 07:22:58;;;;;;;;;;;;;;;;;;4999324;28;19973;-89
2021/01/30 07:25:24;;;;;;;;;;;;;;;;;;4999206;28;19976;-89
2021/01/30 07:27:51;;;;;;;;;;;;;;;;;;4998840;28;19993;-88
2021/01/30 07:30:17;;;;;;;;;;;;;;;;;;4999085;28;20418;-88
2021/01/30 07:32:43;;;;;;;;;;;;;;;;;;4999061;28;19979;-88
2021/01/30 07:35:10;;;;;;;;;;;;;;;;;;5001873;28;20027;-88
2021/01/30 07:37:37;;;;;;;;;;;;;;;;;;5012380;28;19992;-90
2021/01/30 07:40:03;;;;;;;;;;;;;;;;;;5011732;28;19973;-90
2021/01/30 07:42:30;;;;;;;;;;;;;;;;;;5000800;28;19980;-90
2021/01/30 07:44:56;;;;;;;;;;;;;;;;;;5001224;28;19962;-89
2021/01/30 07:47:22;;;;;;;;;;;;;;;;;;5011746;28;19995;-89
2021/01/30 07:49:50;;;;;;;;;;;;;;;;;;5019028;28;19963;-89
2021/01/30 07:52:16;;;;;;;;;;;;;;;;;;5005962;28;19977;-91
2021/01/30 07:54:43;;;;;;;;;;;;;;;;;;5000505;28;19976;-91
2021/01/30 07:57:09;;;;;;;;;;;;;;;;;;5001206;28;19992;-89
2021/01/30 07:59:36;;;;;;;;;;;;;;;;;;5003314;28;20406;-89
2021/01/30 08:02:02;;;;;;;;;;;;;;;;;;5001629;28;19981;-89
2021/01/30 08:04:28;;;;;;;;;;;;;;;;;;5000572;28;19976;-89
2021/01/30 08:06:55;;;;;;;;;;;;;;;;;;4995664;28;19988;-88
2021/01/30 08:09:21;;;;;;;;;;;;;;;;;;4979763;28;20382;-89
2021/01/30 08:11:48;;;;;;;;;;;;;;;;;;4995790;28;19968;-89
2021/01/30 08:14:19;;;;;;;;;;;;;;;;;;5006065;28;19968;-89
2021/01/30 08:16:48;;;;;;;;;;;;;;;;;;5008127;28;20080;-89
2021/01/30 08:19:14;;;;;;;;;;;;;;;;;;5000058;28;20438;-90
2021/01/30 08:21:40;;;;;;;;;;;;;;;;;;4999390;28;20027;-89
2021/01/30 08:24:10;;;;;;;;;;;;;;;;;;4999409;28;19988;-88
2021/01/30 08:26:36;;;;;;;;;;;;;;;;;;5000210;28;20355;-88
2021/01/30 08:29:02;;;;;;;;;;;;;;;;;;4999381;28;19973;-88
2021/01/30 08:31:29;;;;;;;;;;;;;;;;;;5005351;28;19976;-87
2021/01/30 08:33:55;;;;;;;;;;;;;;;;;;5008019;28;19971;-88
2021/01/30 08:36:22;;;;;;;;;;;;;;;;;;5002136;28;19996;-86
2021/01/30 08:38:48;;;;;;;;;;;;;;;;;;5003680;28;19977;-88
2021/01/30 08:41:15;;;;;;;;;;;;;;;;;;5006325;28;20026;-88
2021/01/30 08:43:41;;;;;;;;;;;;;;;;;;5005995;28;20063;-88
2021/01/30 08:46:08;;;;;;;;;;;;;;;;;;5003929;28;20325;-87
2021/01/30 08:48:34;;;;;;;;;;;;;;;;;;5007779;28;19973;-87
2021/01/30 08:51:01;;;;;;;;;;;;;;;;;;5011421;28;19973;-88
2021/01/30 08:53:27;;;;;;;;;;;;;;;;;;5004098;28;20496;-87
2021/01/30 08:55:53;;;;;;;;;;;;;;;;;;5003325;28;19999;-86
2021/01/30 08:58:20;;;;;;;;;;;;;;;;;;5003588;28;19989;-87
2021/01/30 09:00:46;;;;;;;;;;;;;;;;;;5002578;28;20075;-88
2021/01/30 09:03:13;;;;;;;;;;;;;;;;;;5005064;28;20061;-86
2021/01/30 09:05:39;;;;;;;;;;;;;;;;;;5012335;28;19983;-87
2021/01/30 09:08:06;;;;;;;;;;;;;;;;;;5022901;28;19992;-85
2021/01/30 09:10:33;;;;;;;;;;;;;;;;;;5013282;28;19995;-85
2021/01/30 09:12:59;;;;;;;;;;;;;;;;;;5003852;28;20028;-86
2021/01/30 09:15:26;;;;;;;;;;;;;;;;;;5014953;28;20038;-86
2021/01/30 09:17:52;;;;;;;;;;;;;;;;;;5009084;28;20449;-88
2021/01/30 09:20:19;;;;;;;;;;;;;;;;;;5000776;28;19976;-90
2021/01/30 09:22:45;;;;;;;;;;;;;;;;;;5002770;28;20414;-86
2021/01/30 09:25:11;;;;;;;;;;;;;;;;;;5002672;28;19984;-86
2021/01/30 09:27:38;;;;;;;;;;;;;;;;;;5001822;28;19988;-86
2021/01/30 09:30:04;;;;;;;;;;;;;;;;;;5001867;28;19972;-84
2021/01/30 09:32:31;;;;;;;;;;;;;;;;;;5002602;28;19977;-83
2021/01/30 09:34:57;;;;;;;;;;;;;;;;;;5002657;28;20315;-84
2021/01/30 09:37:23;;;;;;;;;;;;;;;;;;5002602;28;19989;-85
2021/01/30 09:39:50;;;;;;;;;;;;;;;;;;5003241;28;19980;-85
2021/01/30 09:42:19;;;;;;;;;;;;;;;;;;5011744;28;19957;-84
2021/01/30 09:44:47;;;;;;;;;;;;;;;;;;5002353;28;20018;-85
2021/01/30 09:47:13;;;;;;;;;;;;;;;;;;5002700;28;19988;-86
2021/01/30 09:49:40;;;;;;;;;;;;;;;;;;5003615;28;19977;-86
2021/01/30 09:52:06;;;;;;;;;;;;;;;;;;5002124;28;19972;-87
2021/01/30 09:54:33;;;;;;;;;;;;;;;;;;5001791;28;20049;-85
2021/01/30 09:56:59;;;;;;;;;;;;;;;;;;5001860;28;19993;-86
2021/01/30 09:59:25;;;;;;;;;;;;;;;;;;5001538;28;19980;-84
2021/01/30 10:01:52;;;;;;;;;;;;;;;;;;5001930;28;19973;-86
2021/01/30 10:04:18;;;;;;;;;;;;;;;;;;5003123;28;19984;-86
2021/01/30 10:06:46;;;;;;;;;;;;;;;;;;4996042;28;20015;-86
2021/01/30 10:09:13;;;;;;;;;;;;;;;;;;5001078;28;19972;-87
2021/01/30 10:11:40;;;;;;;;;;;;;;;;;;4994603;28;19980;-84
2021/01/30 10:14:07;;;;;;;;;;;;;;;;;;5000869;28;20003;-87
2021/01/30 10:16:35;;;;;;;;;;;;;;;;;;5000790;28;20008;-87
2021/01/30 10:19:02;;;;;;;;;;;;;;;;;;4997699;28;19980;-86
2021/01/30 10:21:31;;;;;;;;;;;;;;;;;;5001395;28;19987;-86
2021/01/30 10:23:58;;;;;;;;;;;;;;;;;;4999085;28;20007;-86
2021/01/30 10:26:25;;;;;;;;;;;;;;;;;;4998934;28;21962;-87
2021/01/30 10:28:51;;;;;;;;;;;;;;;;;;4998950;28;20008;-86
2021/01/30 10:31:18;;;;;;;;;;;;;;;;;;4999830;28;20345;-85
2021/01/30 10:33:44;;;;;;;;;;;;;;;;;;4995459;28;19976;-88
2021/01/30 10:36:11;;;;;;;;;;;;;;;;;;5000886;28;19992;-86
2021/01/30 10:38:37;;;;;;;;;;;;;;;;;;5001319;28;19979;-85
2021/01/30 10:41:03;;;;;;;;;;;;;;;;;;5012353;28;19956;-85
2021/01/30 10:43:30;;;;;;;;;;;;;;;;;;5000950;28;19973;-84
2021/01/30 10:45:56;;;;;;;;;;;;;;;;;;5001191;28;19976;-85
2021/01/30 10:48:23;;;;;;;;;;;;;;;;;;5000370;28;19993;-85
2021/01/30 10:50:49;;;;;;;;;;;;;;;;;;5013211;28;19963;-83
2021/01/30 10:53:15;;;;;;;;;;;;;;;;;;5015580;28;19985;-85
2021/01/30 10:55:42;;;;;;;;;;;;;;;;;;5013485;28;19976;-85
2021/01/30 10:58:09;;;;;;;;;;;;;;;;;;4994452;28;19988;-86
2021/01/30 11:00:36;;;;;;;;;;;;;;;;;;4990948;28;20011;-86
2021/01/30 11:03:03;;;;;;;;;;;;;;;;;;4999100;28;20031;-87
2021/01/30 11:05:32;;;;;;;;;;;;;;;;;;4999538;28;20465;-87
2021/01/30 11:08:00;;;;;;;;;;;;;;;;;;4997694;28;19976;-86
2021/01/30 11:10:27;;;;;;;;;;;;;;;;;;5000800;28;19975;-87
2021/01/30 11:12:53;;;;;;;;;;;;;;;;;;4999749;28;19973;-85
2021/01/30 11:15:19;;;;;;;;;;;;;;;;;;5000035;28;19969;-88
2021/01/30 11:17:46;;;;;;;;;;;;;;;;;;5004248;28;19988;-89
2021/01/30 11:20:12;;;;;;;;;;;;;;;;;;5000817;28;19968;-90
2021/01/30 11:22:39;;;;;;;;;;;;;;;;;;5010428;28;19987;-88
2021/01/30 11:25:05;;;;;;;;;;;;;;;;;;5017530;28;20477;-88
2021/01/30 11:27:32;;;;;;;;;;;;;;;;;;5014789;28;19989;-87
2021/01/30 11:29:59;;;;;;;;;;;;;;;;;;5014221;28;19976;-87
2021/01/30 11:32:27;;;;;;;;;;;;;;;;;;5011133;28;21506;-88
2021/01/30 11:34:54;;;;;;;;;;;;;;;;;;5001924;28;20082;-88
2021/01/30 11:37:20;;;;;;;;;;;;;;;;;;4990645;28;19996;-87
2021/01/30 11:39:49;;;;;;;;;;;;;;;;;;5013432;28;19957;-85
2021/01/30 11:42:15;;;;;;;;;;;;;;;;;;5016040;28;19972;-86
2021/01/30 11:44:42;;;;;;;;;;;;;;;;;;5013275;28;20418;-86
2021/01/30 11:47:08;;;;;;;;;;;;;;;;;;5001106;28;19995;-85
2021/01/30 11:49:37;;;;;;;;;;;;;;;;;;5000747;28;19972;-85
2021/01/30 11:52:03;;;;;;;;;;;;;;;;;;4980723;28;19983;-86
2021/01/30 11:54:30;;;;;;;;;;;;;;;;;;4988565;28;19996;-85
2021/01/30 11:56:56;;;;;;;;;;;;;;;;;;4999958;28;20079;-86
2021/01/30 11:59:23;;;;;;;;;;;;;;;;;;4999901;28;19972;-85
2021/01/30 12:01:49;;;;;;;;;;;;;;;;;;4999847;28;20089;-85
2021/01/30 12:04:16;;;;;;;;;;;;;;;;;;4999464;28;19973;-86
2021/01/30 12:06:42;;;;;;;;;;;;;;;;;;4999804;28;20389;-86
2021/01/30 12:09:15;;;;;;;;;;;;;;;;;;4999695;28;19968;-86
2021/01/30 12:11:42;;;;;;;;;;;;;;;;;;4998381;28;19973;-84
2021/01/30 12:14:11;;;;;;;;;;;;;;;;;;4999319;28;19969;-90
2021/01/30 12:16:38;;;;;;;;;;;;;;;;;;5004043;28;20365;-86
2021/01/30 12:19:05;;;;;;;;;;;;;;;;;;5000608;28;20341;-83
2021/01/30 12:21:32;;;;;;;;;;;;;;;;;;5004572;28;19987;-85
2021/01/30 12:23:58;;;;;;;;;;;;;;;;;;4997103;28;19999;-84
2021/01/30 12:26:27;;;;;;;;;;;;;;;;;;4992672;28;20389;-86
2021/01/30 12:28:53;;;;;;;;;;;;;;;;;;4996330;28;19975;-85
2021/01/30 12:31:20;;;;;;;;;;;;;;;;;;5011628;28;19969;-85
2021/01/30 12:33:47;;;;;;;;;;;;;;;;;;5013778;28;19973;-86
2021/01/30 12:36:17;;;;;;;;;;;;;;;;;;5003664;28;20011;-86
2021/01/30 12:38:44;;;;;;;;;;;;;;;;;;4997763;28;19972;-86
2021/01/30 12:41:11;;;;;;;;;;;;;;;;;;5011440;28;19972;-85
2021/01/30 12:43:37;;;;;;;;;;;;;;;;;;5004842;28;20024;-86
2021/01/30 12:46:04;;;;;;;;;;;;;;;;;;4996666;28;20056;-84
2021/01/30 12:48:30;;;;;;;;;;;;;;;;;;5003136;28;19996;-83
2021/01/30 12:51:01;;;;;;;;;;;;;;;;;;5005843;28;19968;-84
2021/01/30 12:53:28;;;;;;;;;;;;;;;;;;5018523;28;19976;-84
2021/01/30 12:55:54;;;;;;;;;;;;;;;;;;5002289;28;20410;-83
2021/01/30 12:58:22;;;;;;;;;;;;;;;;;;5003096;28;20465;-87
2021/01/30 13:00:49;;;;;;;;;;;;;;;;;;5001932;28;19984;-81
2021/01/30 13:03:15;;;;;;;;;;;;;;;;;;5002418;28;19972;-83
2021/01/30 13:05:42;;;;;;;;;;;;;;;;;;4996465;28;19975;-82
2021/01/30 13:08:10;;;;;;;;;;;;;;;;;;4998947;28;19989;-82
2021/01/30 13:10:37;;;;;;;;;;;;;;;;;;5015230;28;19995;-81
2021/01/30 13:13:03;;;;;;;;;;;;;;;;;;4999885;28;20346;-90
2021/01/30 13:15:30;;;;;;;;;;;;;;;;;;5001619;28;19978;-83
2021/01/30 13:17:59;;;;;;;;;;;;;;;;;;5001828;28;19995;-84
2021/01/30 13:20:29;;;;;;;;;;;;;;;;;;5002732;28;19968;-84
2021/01/30 13:22:55;;;;;;;;;;;;;;;;;;4999888;28;19973;-83
2021/01/30 13:25:23;;;;;;;;;;;;;;;;;;4995569;28;19984;-84
2021/01/30 13:28:03;;;;;;;;;;;;;;;;;;;;;
2021/01/30 13:30:30;;;;;;;;;;;;;;;;;;5006588;28;19983;-91
2021/01/30 13:32:57;;;;;;;;;;;;;;;;;;5000059;28;19969;-81
2021/01/30 13:35:23;;;;;;;;;;;;;;;;;;5000280;28;19973;-84
2021/01/30 13:37:50;;;;;;;;;;;;;;;;;;4998107;28;20107;-82
2021/01/30 13:40:16;;;;;;;;;;;;;;;;;;5004345;28;19976;-82
2021/01/30 13:42:43;;;;;;;;;;;;;;;;;;5002729;28;19972;-82
2021/01/30 13:45:11;;;;;;;;;;;;;;;;;;5009480;28;20019;-82
2021/01/30 13:47:37;;;;;;;;;;;;;;;;;;5006838;28;19993;-84
2021/01/30 13:50:04;;;;;;;;;;;;;;;;;;4995919;28;19968;-80
2021/01/30 13:52:30;;;;;;;;;;;;;;;;;;4985552;28;19980;-83
2021/01/30 13:54:58;;;;;;;;;;;;;;;;;;5007797;28;19968;-80
2021/01/30 13:57:24;;;;;;;;;;;;;;;;;;5001136;28;20085;-81
2021/01/30 13:59:50;;;;;;;;;;;;;;;;;;5002775;28;19980;-82
2021/01/30 14:02:17;;;;;;;;;;;;;;;;;;5007350;28;19973;-84
2021/01/30 14:04:43;;;;;;;;;;;;;;;;;;5012103;28;19973;-82
2021/01/30 14:07:10;;;;;;;;;;;;;;;;;;5007654;28;19988;-81
2021/01/30 14:09:37;;;;;;;;;;;;;;;;;;4993783;28;20023;-81
2021/01/30 14:12:03;;;;;;;;;;;;;;;;;;5006278;28;19969;-81
2021/01/30 14:14:30;;;;;;;;;;;;;;;;;;4995525;28;20410;-82
2021/01/30 14:16:56;;;;;;;;;;;;;;;;;;4994450;28;19995;-81
2021/01/30 14:19:22;;;;;;;;;;;;;;;;;;5002029;28;19976;-89
2021/01/30 14:21:56;;;;;;;;;;;;;;;;;;4983924;28;19977;-89
2021/01/30 14:24:22;;;;;;;;;;;;;;;;;;4998566;28;19969;-91
2021/01/30 14:26:49;;;;;;;;;;;;;;;;;;5001760;28;19993;-90
2021/01/30 14:29:15;;;;;;;;;;;;;;;;;;5002134;28;19987;-90
2021/01/30 14:31:42;;;;;;;;;;;;;;;;;;5001288;28;20027;-90
2021/01/30 14:34:10;;;;;;;;;;;;;;;;;;5000900;28;19969;-89
2021/01/30 14:36:36;;;;;;;;;;;;;;;;;;5001732;28;19996;-89
2021/01/30 14:39:04;;;;;;;;;;;;;;;;;;4997558;28;19976;-89
2021/01/30 14:41:30;;;;;;;;;;;;;;;;;;4997932;28;20020;-89
2021/01/30 14:43:58;;;;;;;;;;;;;;;;;;5001652;28;19976;-87
2021/01/30 14:46:25;;;;;;;;;;;;;;;;;;4999559;28;19973;-82
2021/01/30 14:48:51;;;;;;;;;;;;;;;;;;5000110;28;20434;-84
2021/01/30 14:51:18;;;;;;;;;;;;;;;;;;4995770;28;19969;-83
2021/01/30 14:53:44;;;;;;;;;;;;;;;;;;5001007;28;19969;-83
2021/01/30 14:56:10;;;;;;;;;;;;;;;;;;4999996;28;19972;-85
2021/01/30 14:58:37;;;;;;;;;;;;;;;;;;5010127;28;19979;-83
2021/01/30 15:01:03;;;;;;;;;;;;;;;;;;4995528;28;20479;-84
2021/01/30 15:03:30;;;;;;;;;;;;;;;;;;5001023;28;19981;-83
2021/01/30 15:05:59;;;;;;;;;;;;;;;;;;4988100;28;19976;-83
2021/01/30 15:08:25;;;;;;;;;;;;;;;;;;5000562;28;19996;-83
2021/01/30 15:10:53;;;;;;;;;;;;;;;;;;5000330;28;19972;-83
2021/01/30 15:13:19;;;;;;;;;;;;;;;;;;4983790;28;20002;-82
2021/01/30 15:15:46;;;;;;;;;;;;;;;;;;5000088;28;20418;-82
2021/01/30 15:18:15;;;;;;;;;;;;;;;;;;4999901;28;19989;-82
2021/01/30 15:20:41;;;;;;;;;;;;;;;;;;4993909;28;20372;-82
2021/01/30 15:23:08;;;;;;;;;;;;;;;;;;4991047;28;19968;-81
2021/01/30 15:25:34;;;;;;;;;;;;;;;;;;5002086;28;19977;-83
2021/01/30 15:28:00;;;;;;;;;;;;;;;;;;5000242;28;19992;-83
2021/01/30 15:30:27;;;;;;;;;;;;;;;;;;5000903;28;19984;-83
2021/01/30 15:32:55;;;;;;;;;;;;;;;;;;5001532;28;20333;-82
2021/01/30 15:35:22;;;;;;;;;;;;;;;;;;5000609;28;20023;-83
2021/01/30 15:37:48;;;;;;;;;;;;;;;;;;5006128;28;19978;-82
2021/01/30 15:40:14;;;;;;;;;;;;;;;;;;5009061;28;19977;-81
2021/01/30 15:42:41;;;;;;;;;;;;;;;;;;5016278;28;19973;-82
2021/01/30 15:45:07;;;;;;;;;;;;;;;;;;5003724;28;19984;-84
2021/01/30 15:47:33;;;;;;;;;;;;;;;;;;5010415;28;19989;-83
2021/01/30 15:50:00;;;;;;;;;;;;;;;;;;5018991;28;19972;-83
2021/01/30 15:52:28;;;;;;;;;;;;;;;;;;5044500;23;19987;-83
2021/01/30 15:54:55;;;;;;;;;;;;;;;;;;4990284;28;19968;-84
2021/01/30 15:57:21;;;;;;;;;;;;;;;;;;4982001;28;19992;-86
2021/01/30 15:59:48;;;;;;;;;;;;;;;;;;4977834;28;19976;-82
2021/01/30 16:02:14;;;;;;;;;;;;;;;;;;4976683;28;19985;-86
2021/01/30 16:04:41;;;;;;;;;;;;;;;;;;4979652;28;19976;-87
2021/01/30 16:07:07;;;;;;;;;;;;;;;;;;4978902;28;19973;-84
2021/01/30 16:09:33;;;;;;;;;;;;;;;;;;4981272;28;20007;-87
2021/01/30 16:12:00;;;;;;;;;;;;;;;;;;4980469;28;19922;-86
2021/01/30 16:14:26;;;;;;;;;;;;;;;;;;4980397;28;20003;-87
2021/01/30 16:16:53;;;;;;;;;;;;;;;;;;4986477;28;19996;-87
2021/01/30 16:19:19;;;;;;;;;;;;;;;;;;4959540;29;20106;-86
2021/01/30 16:21:47;;;;;;;;;;;;;;;;;;4963584;28;19993;-87
2021/01/30 16:24:13;;;;;;;;;;;;;;;;;;4977566;28;19973;-86
2021/01/30 16:26:40;;;;;;;;;;;;;;;;;;4989019;28;20409;-86
2021/01/30 16:29:09;;;;;;;;;;;;;;;;;;4980657;28;22387;-84
2021/01/30 16:31:35;;;;;;;;;;;;;;;;;;4980115;28;20047;-85
2021/01/30 16:34:02;;;;;;;;;;;;;;;;;;4980644;28;19973;-86
2021/01/30 16:36:28;;;;;;;;;;;;;;;;;;4982377;28;20064;-87
2021/01/30 16:38:54;;;;;;;;;;;;;;;;;;4982500;28;19977;-86
2021/01/30 16:41:21;;;;;;;;;;;;;;;;;;4981416;28;19993;-86
2021/01/30 16:43:47;;;;;;;;;;;;;;;;;;4981758;28;19974;-87